createdAt,value
2023-02-12T00:01:12.658Z,10.11
2023-02-12T00:03:41.269Z,10.47
2023-02-12T00:06:10.024Z,10.50
2023-02-12T00:08:38.506Z,10.65
2023-02-12T00:11:15.184Z,10.83
2023-02-12T00:13:46.132Z,11.00
2023-02-12T00:16:19.335Z,10.92
2023-02-12T00:18:47.360Z,9.84
2023-02-12T00:21:15.246Z,8.75
2023-02-12T00:23:42.848Z,8.27
2023-02-12T00:26:22.324Z,9.03
2023-02-12T00:28:50.366Z,9.80
2023-02-12T00:31:25.437Z,10.33
2023-02-12T00:33:53.161Z,10.69
2023-02-12T00:36:23.477Z,10.89
2023-02-12T00:38:55.920Z,11.11
2023-02-12T00:41:24.518Z,11.00
2023-02-12T00:43:52.654Z,10.02
2023-02-12T00:46:22.363Z,8.87
2023-02-12T00:48:49.760Z,8.28
2023-02-12T00:51:17.068Z,9.05
2023-02-12T00:53:44.320Z,9.98
2023-02-12T00:56:11.986Z,10.53
2023-02-12T00:58:39.132Z,10.84
2023-02-12T01:01:06.913Z,11.06
2023-02-12T01:03:34.547Z,11.26
2023-02-12T01:06:01.943Z,11.16
2023-02-12T01:08:29.285Z,10.09
2023-02-12T01:11:02.589Z,8.99
2023-02-12T01:13:32.077Z,8.14
2023-02-12T01:16:14.387Z,8.29
2023-02-12T01:18:42.973Z,9.48
2023-02-12T01:21:18.090Z,10.14
2023-02-12T01:23:46.491Z,10.62
2023-02-12T01:26:16.404Z,10.83
2023-02-12T01:28:45.291Z,10.73
2023-02-12T01:31:15.840Z,9.74
2023-02-12T01:33:43.694Z,8.63
2023-02-12T01:36:11.839Z,8.17
2023-02-12T01:38:39.398Z,9.07
2023-02-12T01:41:31.994Z,9.92
2023-02-12T01:44:10.229Z,10.54
2023-02-12T01:46:37.925Z,10.89
2023-02-12T01:49:10.162Z,11.14
2023-02-12T01:51:38.098Z,11.36
2023-02-12T01:54:09.087Z,11.04
2023-02-12T01:56:36.661Z,9.88
2023-02-12T01:59:03.903Z,8.83
2023-02-12T02:04:21.203Z,9.16
2023-02-12T02:06:57.257Z,10.11
2023-02-12T02:09:26.227Z,10.68
2023-02-12T02:12:12.126Z,11.02
2023-02-12T02:14:41.845Z,10.68
2023-02-12T02:17:18.489Z,9.51
2023-02-12T02:20:17.593Z,8.42
2023-02-12T02:23:25.405Z,8.29
2023-02-12T02:25:56.278Z,9.56
2023-02-12T02:28:51.659Z,10.13
2023-02-12T02:31:42.416Z,10.60
2023-02-12T02:34:26.545Z,10.94
2023-02-12T02:37:14.411Z,11.12
2023-02-12T02:39:52.618Z,10.51
2023-02-12T02:42:31.652Z,9.30
2023-02-12T02:45:37.204Z,8.30
2023-02-12T02:48:13.331Z,8.04
2023-02-12T02:50:48.394Z,9.03
2023-02-12T02:53:29.160Z,9.86
2023-02-12T02:56:00.323Z,10.42
2023-02-12T02:58:33.268Z,10.79
2023-02-12T03:01:10.365Z,11.11
2023-02-12T03:03:49.101Z,10.83
2023-02-12T03:06:26.209Z,9.61
2023-02-12T03:08:59.209Z,8.56
2023-02-12T03:11:30.665Z,7.83
2023-02-12T03:14:19.488Z,7.68
2023-02-12T03:17:07.322Z,8.87
2023-02-12T03:19:50.008Z,9.87
2023-02-12T03:22:31.523Z,10.44
2023-02-12T03:25:10.251Z,10.84
2023-02-12T03:27:43.374Z,11.10
2023-02-12T03:30:12.218Z,11.06
2023-02-12T03:33:17.137Z,9.94
2023-02-12T03:36:07.402Z,8.56
2023-02-12T03:38:45.506Z,7.72
2023-02-12T03:41:21.315Z,7.95
2023-02-12T03:43:57.097Z,9.02
2023-02-12T03:46:34.069Z,9.81
2023-02-12T03:49:07.980Z,10.29
2023-02-12T03:51:41.484Z,10.56
2023-02-12T03:54:11.542Z,10.81
2023-02-12T03:56:52.740Z,10.78
2023-02-12T03:59:23.306Z,9.69
2023-02-12T04:01:54.440Z,8.66
2023-02-12T04:04:23.621Z,7.89
2023-02-12T04:06:53.031Z,7.63
2023-02-12T04:09:22.345Z,8.62
2023-02-12T04:12:24.030Z,9.61
2023-02-12T04:15:07.519Z,10.32
2023-02-12T04:17:55.931Z,10.73
2023-02-12T04:20:49.365Z,10.61
2023-02-12T04:24:03.838Z,9.35
2023-02-12T04:26:58.598Z,8.04
2023-02-12T04:30:20.520Z,7.65
2023-02-12T04:32:54.615Z,8.94
2023-02-12T04:35:32.774Z,9.69
2023-02-12T04:38:24.610Z,10.11
2023-02-12T04:40:53.493Z,10.36
2023-02-12T04:43:36.626Z,9.87
2023-02-12T04:46:07.187Z,8.58
2023-02-12T04:48:36.416Z,7.61
2023-02-12T04:51:03.878Z,6.90
2023-02-12T04:53:31.327Z,6.69
2023-02-12T04:55:59.100Z,7.71
2023-02-12T04:58:26.593Z,8.69
2023-02-12T05:00:53.997Z,9.25
2023-02-12T05:03:21.225Z,9.64
2023-02-12T05:05:48.435Z,9.92
2023-02-12T05:08:16.026Z,9.87
2023-02-12T05:10:43.616Z,8.82
2023-02-12T05:13:11.261Z,7.76
2023-02-12T05:15:41.824Z,6.98
2023-02-12T05:18:09.321Z,6.64
2023-02-12T05:20:36.483Z,7.60
2023-02-12T05:23:04.115Z,8.70
2023-02-12T05:25:32.684Z,9.39
2023-02-12T05:28:00.651Z,9.75
2023-02-12T05:30:28.345Z,8.93
2023-02-12T05:32:55.718Z,7.80
2023-02-12T05:35:23.049Z,6.98
2023-02-12T05:37:50.452Z,6.37
2023-02-12T05:40:18.141Z,6.23
2023-02-12T05:42:45.557Z,7.41
2023-02-12T05:45:12.822Z,8.38
2023-02-12T05:47:40.122Z,8.94
2023-02-12T05:50:08.318Z,9.04
2023-02-12T05:52:36.088Z,8.10
2023-02-12T05:55:04.064Z,7.01
2023-02-12T05:57:31.355Z,6.19
2023-02-12T05:59:58.617Z,5.87
2023-02-12T06:02:26.180Z,6.90
2023-02-12T06:04:53.656Z,7.89
2023-02-12T06:07:20.979Z,8.52
2023-02-12T06:09:48.426Z,8.65
2023-02-12T06:12:15.738Z,7.69
2023-02-12T06:14:43.660Z,6.69
2023-02-12T06:17:10.904Z,5.97
2023-02-12T06:19:38.319Z,5.42
2023-02-12T06:22:06.037Z,5.37
2023-02-12T06:24:33.578Z,6.85
2023-02-12T06:27:00.924Z,8.06
2023-02-12T06:29:28.346Z,8.67
2023-02-12T06:31:55.985Z,8.13
2023-02-12T06:34:23.416Z,7.03
2023-02-12T06:36:50.998Z,6.13
2023-02-12T06:39:18.658Z,5.42
2023-02-12T06:41:46.018Z,4.90
2023-02-12T06:44:14.071Z,4.99
2023-02-12T06:46:41.523Z,6.47
2023-02-12T06:49:09.072Z,7.70
2023-02-12T06:51:38.609Z,8.47
2023-02-12T06:54:05.887Z,8.52
2023-02-12T06:56:33.121Z,7.49
2023-02-12T06:59:02.409Z,6.50
2023-02-12T07:01:31.000Z,5.70
2023-02-12T07:04:01.418Z,5.48
2023-02-12T07:06:30.551Z,6.73
2023-02-12T07:08:59.014Z,7.81
2023-02-12T07:11:28.732Z,8.47
2023-02-12T07:13:56.303Z,8.61
2023-02-12T07:16:23.731Z,7.57
2023-02-12T07:18:51.590Z,6.49
2023-02-12T07:21:19.531Z,5.69
2023-02-12T07:23:51.021Z,5.11
2023-02-12T07:26:20.007Z,4.97
2023-02-12T07:28:47.249Z,6.08
2023-02-12T07:31:18.233Z,7.15
2023-02-12T07:33:46.658Z,7.90
2023-02-12T07:36:17.282Z,8.13
2023-02-12T07:38:45.203Z,7.27
2023-02-12T07:41:16.512Z,6.20
2023-02-12T07:43:46.335Z,5.37
2023-02-12T07:46:19.503Z,4.89
2023-02-12T07:48:47.883Z,5.75
2023-02-12T07:51:19.712Z,6.87
2023-02-12T07:53:47.319Z,7.68
2023-02-12T07:56:26.577Z,8.09
2023-02-12T07:58:54.479Z,7.32
2023-02-12T08:01:27.960Z,6.20
2023-02-12T08:03:59.538Z,5.34
2023-02-12T08:06:30.318Z,4.75
2023-02-12T08:09:00.374Z,4.60
2023-02-12T08:11:30.135Z,5.71
2023-02-12T08:13:59.070Z,6.85
2023-02-12T08:16:28.370Z,7.64
2023-02-12T08:19:00.686Z,8.16
2023-02-12T08:21:35.746Z,7.73
2023-02-12T08:24:03.152Z,6.70
2023-02-12T08:26:36.729Z,5.89
2023-02-12T08:29:07.926Z,5.26
2023-02-12T08:31:42.445Z,5.57
2023-02-12T08:34:31.196Z,6.70
2023-02-12T08:36:59.539Z,7.55
2023-02-12T08:39:28.685Z,7.18
2023-02-12T08:41:57.998Z,6.12
2023-02-12T08:44:25.898Z,5.28
2023-02-12T08:46:55.921Z,4.85
2023-02-12T08:49:28.023Z,5.78
2023-02-12T08:51:58.138Z,6.98
2023-02-12T08:54:28.488Z,7.69
2023-02-12T08:57:01.548Z,7.37
2023-02-12T08:59:29.450Z,6.32
2023-02-12T09:01:57.028Z,5.51
2023-02-12T09:04:29.376Z,4.92
2023-02-12T09:06:57.186Z,4.47
2023-02-12T09:09:24.698Z,4.41
2023-02-12T09:11:52.347Z,5.60
2023-02-12T09:14:26.771Z,6.65
2023-02-12T09:16:55.062Z,7.26
2023-02-12T09:19:22.563Z,6.56
2023-02-12T09:21:56.295Z,5.62
2023-02-12T09:24:28.373Z,4.89
2023-02-12T09:26:56.425Z,4.40
2023-02-12T09:29:23.728Z,4.98
2023-02-12T09:31:50.960Z,6.30
2023-02-12T09:34:18.391Z,7.26
2023-02-12T09:36:45.747Z,7.65
2023-02-12T09:39:13.135Z,6.91
2023-02-12T09:42:09.111Z,6.09
2023-02-12T09:44:36.288Z,5.38
2023-02-12T09:47:21.433Z,4.98
2023-02-12T09:50:15.675Z,4.65
2023-02-12T09:52:43.814Z,4.72
2023-02-12T09:55:20.090Z,5.98
2023-02-12T09:57:47.499Z,7.10
2023-02-12T10:00:18.041Z,7.65
2023-02-12T10:02:45.945Z,7.25
2023-02-12T10:05:26.364Z,6.32
2023-02-12T10:08:09.619Z,5.54
2023-02-12T10:11:14.301Z,4.99
2023-02-12T10:13:48.513Z,4.61
2023-02-12T10:16:44.355Z,4.42
2023-02-12T10:19:47.007Z,4.88
2023-02-12T10:22:56.778Z,6.65
2023-02-12T10:25:43.400Z,7.97
2023-02-12T10:28:17.237Z,7.66
2023-02-12T10:30:58.958Z,6.66
2023-02-12T10:33:39.313Z,5.90
2023-02-12T10:36:19.211Z,5.46
2023-02-12T10:38:52.815Z,5.20
2023-02-12T10:41:20.484Z,5.03
2023-02-12T10:43:47.993Z,5.39
2023-02-12T10:46:17.551Z,6.84
2023-02-12T10:48:48.765Z,7.93
2023-02-12T10:51:58.557Z,7.77
2023-02-12T10:54:38.522Z,6.67
2023-02-12T10:57:22.660Z,5.74
2023-02-12T10:59:53.865Z,5.10
2023-02-12T11:02:27.938Z,5.18
2023-02-12T11:04:58.513Z,6.47
2023-02-12T11:07:30.174Z,7.18
2023-02-12T11:09:58.542Z,6.68
2023-02-12T11:12:49.254Z,6.00
2023-02-12T11:15:20.577Z,5.60
2023-02-12T11:17:56.867Z,5.39
2023-02-12T11:20:26.153Z,5.67
2023-02-12T11:22:57.171Z,7.10
2023-02-12T11:25:31.730Z,8.56
2023-02-12T11:28:07.058Z,8.26
2023-02-12T11:30:35.460Z,7.36
2023-02-12T11:33:27.006Z,6.65
2023-02-12T11:36:05.636Z,6.03
2023-02-12T11:38:41.425Z,5.52
2023-02-12T11:41:36.760Z,5.15
2023-02-12T11:44:19.071Z,4.81
2023-02-12T11:47:13.126Z,5.22
2023-02-12T11:49:50.860Z,7.31
2023-02-12T11:52:29.385Z,8.09
2023-02-12T11:55:01.438Z,7.50
2023-02-12T11:57:48.774Z,6.89
2023-02-12T12:00:29.834Z,6.32
2023-02-12T12:03:29.843Z,5.88
2023-02-12T12:06:20.681Z,5.59
2023-02-12T12:09:03.965Z,5.36
2023-02-12T12:11:37.365Z,5.22
2023-02-12T12:14:16.361Z,5.70
2023-02-12T12:17:14.072Z,7.65
2023-02-12T12:20:02.856Z,8.71
2023-02-12T12:22:36.321Z,7.98
2023-02-12T12:25:28.135Z,7.38
2023-02-12T12:28:18.187Z,6.89
2023-02-12T12:31:10.481Z,6.49
2023-02-12T12:33:56.588Z,6.18
2023-02-12T12:37:29.898Z,5.91
2023-02-12T12:41:01.457Z,5.62
2023-02-12T12:45:01.170Z,6.90
2023-02-12T12:49:03.910Z,9.02
2023-02-12T12:52:12.022Z,8.10
2023-02-12T13:08:15.645Z,5.51
2023-02-12T13:12:09.693Z,5.21
2023-02-12T13:15:59.376Z,5.00
2023-02-12T13:19:19.626Z,6.32
2023-02-12T13:22:37.657Z,8.41
2023-02-12T13:25:25.849Z,8.76
2023-02-12T13:27:56.395Z,7.68
2023-02-12T13:30:31.195Z,6.89
2023-02-12T13:33:21.822Z,6.36
2023-02-12T13:35:54.990Z,5.99
2023-02-12T13:39:02.111Z,5.71
2023-02-12T13:41:31.088Z,5.52
2023-02-12T13:44:22.625Z,5.37
2023-02-12T13:47:09.406Z,5.87
2023-02-12T13:49:50.238Z,7.67
2023-02-12T13:52:45.600Z,7.43
2023-02-12T13:55:24.482Z,6.64
2023-02-12T13:58:36.876Z,6.14
2023-02-12T14:01:08.925Z,5.81
2023-02-12T14:03:39.446Z,5.63
2023-02-12T14:06:15.123Z,5.55
2023-02-12T14:08:49.342Z,5.50
2023-02-12T14:11:21.525Z,5.37
2023-02-12T14:13:54.983Z,5.71
2023-02-12T14:16:40.129Z,7.54
2023-02-12T14:19:45.493Z,8.02
2023-02-12T14:22:18.284Z,7.08
2023-02-12T14:24:56.041Z,6.47
2023-02-12T14:27:54.445Z,5.99
2023-02-12T14:31:11.672Z,5.60
2023-02-12T14:33:40.608Z,5.26
2023-02-12T14:36:42.915Z,5.02
2023-02-12T14:39:24.349Z,4.78
2023-02-12T14:41:59.400Z,5.31
2023-02-12T14:44:39.008Z,7.14
2023-02-12T14:47:17.716Z,7.48
2023-02-12T14:49:53.737Z,6.64
2023-02-12T14:52:31.010Z,5.98
2023-02-12T14:55:06.139Z,5.50
2023-02-12T14:57:37.425Z,5.14
2023-02-12T15:00:28.268Z,5.34
2023-02-12T15:03:00.001Z,7.28
2023-02-12T15:06:21.049Z,8.20
2023-02-12T15:09:08.999Z,7.24
2023-02-12T15:11:56.784Z,6.30
2023-02-12T15:14:29.641Z,5.68
2023-02-12T15:17:04.183Z,5.26
2023-02-12T15:19:41.274Z,5.34
2023-02-12T15:22:23.998Z,6.92
2023-02-12T15:24:55.263Z,8.02
2023-02-12T15:27:26.645Z,7.26
2023-02-12T15:29:56.337Z,6.34
2023-02-12T15:32:30.713Z,5.73
2023-02-12T15:34:58.484Z,5.25
2023-02-12T15:37:30.560Z,4.90
2023-02-12T15:40:07.922Z,4.62
2023-02-12T15:42:40.300Z,4.83
2023-02-12T15:45:21.856Z,6.24
2023-02-12T15:47:57.564Z,7.75
2023-02-12T15:50:26.484Z,8.86
2023-02-12T15:52:55.002Z,8.20
2023-02-12T15:55:29.914Z,7.12
2023-02-12T15:58:03.247Z,6.30
2023-02-12T16:00:48.892Z,5.73
2023-02-12T16:03:27.118Z,5.27
2023-02-12T16:06:14.890Z,4.93
2023-02-12T16:08:46.689Z,4.63
2023-02-12T16:11:21.317Z,4.37
2023-02-12T16:13:58.348Z,4.52
2023-02-12T16:16:44.768Z,6.14
2023-02-12T16:19:29.488Z,7.57
2023-02-12T16:22:13.633Z,8.70
2023-02-12T16:24:49.892Z,8.14
2023-02-12T16:27:28.515Z,6.77
2023-02-12T16:29:59.711Z,5.69
2023-02-12T16:32:37.747Z,4.98
2023-02-12T16:35:26.796Z,4.48
2023-02-12T16:38:00.438Z,4.08
2023-02-12T16:40:34.596Z,3.80
2023-02-12T16:43:08.918Z,3.92
2023-02-12T16:45:38.975Z,5.68
2023-02-12T16:48:11.760Z,7.05
2023-02-12T16:51:23.751Z,7.41
2023-02-12T16:53:55.417Z,6.21
2023-02-12T16:56:27.028Z,5.32
2023-02-12T16:59:01.040Z,4.69
2023-02-12T17:01:33.089Z,4.17
2023-02-12T17:04:06.427Z,3.73
2023-02-12T17:06:36.032Z,3.34
2023-02-12T17:09:12.885Z,3.42
2023-02-12T17:11:49.070Z,5.00
2023-02-12T17:14:19.949Z,6.45
2023-02-12T17:16:50.372Z,7.48
2023-02-12T17:19:19.631Z,7.10
2023-02-12T17:21:50.439Z,5.77
2023-02-12T17:24:29.679Z,4.71
2023-02-12T17:26:58.906Z,3.91
2023-02-12T17:29:28.897Z,3.37
2023-02-12T17:31:57.584Z,2.93
2023-02-12T17:34:28.769Z,2.57
2023-02-12T17:36:58.614Z,2.59
2023-02-12T17:39:26.597Z,4.09
2023-02-12T17:41:55.610Z,5.42
2023-02-12T17:44:24.638Z,6.25
2023-02-12T17:46:54.757Z,6.55
2023-02-12T17:49:26.249Z,5.63
2023-02-12T17:51:54.812Z,4.63
2023-02-12T17:54:23.191Z,3.91
2023-02-12T17:56:52.271Z,3.40
2023-02-12T17:59:20.949Z,2.97
2023-02-12T18:01:49.385Z,2.61
2023-02-12T18:04:19.451Z,2.69
2023-02-12T18:06:48.808Z,4.16
2023-02-12T18:09:17.616Z,5.37
2023-02-12T18:11:46.292Z,6.21
2023-02-12T18:14:14.506Z,7.01
2023-02-12T18:16:43.509Z,7.40
2023-02-12T18:19:12.352Z,6.35
2023-02-12T18:21:42.544Z,5.13
2023-02-12T18:24:12.941Z,4.24
2023-02-12T18:26:41.353Z,3.62
2023-02-12T18:29:09.824Z,3.14
2023-02-12T18:31:38.839Z,2.74
2023-02-12T18:34:09.196Z,2.82
2023-02-12T18:36:37.816Z,4.31
2023-02-12T18:39:06.568Z,6.03
2023-02-12T18:41:36.887Z,7.24
2023-02-12T18:44:05.881Z,7.66
2023-02-12T18:46:35.640Z,6.56
2023-02-12T18:49:08.269Z,5.32
2023-02-12T18:51:42.204Z,4.42
2023-02-12T18:54:23.414Z,3.79
2023-02-12T18:56:53.517Z,3.29
2023-02-12T18:59:22.713Z,2.93
2023-02-12T19:01:55.855Z,3.07
2023-02-12T19:04:27.505Z,5.03
2023-02-12T19:06:59.468Z,6.81
2023-02-12T19:09:28.676Z,7.66
2023-02-12T19:11:59.779Z,6.76
2023-02-12T19:14:33.029Z,5.43
2023-02-12T19:17:05.544Z,4.37
2023-02-12T19:19:33.821Z,3.59
2023-02-12T19:22:02.356Z,3.09
2023-02-12T19:24:45.619Z,3.09
2023-02-12T19:27:19.215Z,4.55
2023-02-12T19:29:47.587Z,5.69
2023-02-12T19:32:16.260Z,6.48
2023-02-12T19:34:45.038Z,6.80
2023-02-12T19:37:22.749Z,5.89
2023-02-12T19:39:55.598Z,4.81
2023-02-12T19:50:25.069Z,2.69
2023-02-12T19:52:53.874Z,2.84
2023-02-12T19:55:22.671Z,4.41
2023-02-12T19:57:52.084Z,5.68
2023-02-12T20:00:22.500Z,6.56
2023-02-12T20:02:51.776Z,7.20
2023-02-12T20:05:20.639Z,6.25
2023-02-12T20:07:49.724Z,5.06
2023-02-12T20:10:18.779Z,4.18
2023-02-12T20:12:48.244Z,3.54
2023-02-12T20:15:16.924Z,3.07
2023-02-12T20:17:45.755Z,2.67
2023-02-12T20:20:19.256Z,2.70
2023-02-12T20:22:48.196Z,4.00
2023-02-12T20:25:17.041Z,5.15
2023-02-12T20:27:45.873Z,6.12
2023-02-12T20:30:15.228Z,6.69
2023-02-12T20:32:46.293Z,6.20
2023-02-12T20:35:16.403Z,5.06
2023-02-12T20:37:47.449Z,4.13
2023-02-12T20:40:16.662Z,3.41
2023-02-12T20:42:45.568Z,2.88
2023-02-12T20:45:14.061Z,2.85
2023-02-12T20:47:42.623Z,4.42
2023-02-12T20:50:11.711Z,5.86
2023-02-12T20:52:40.929Z,6.87
2023-02-12T20:55:10.124Z,7.19
2023-02-12T20:57:39.160Z,6.09
2023-02-12T21:00:12.762Z,4.90
2023-02-12T21:02:40.810Z,4.05
2023-02-12T21:05:11.835Z,3.47
2023-02-12T21:07:40.256Z,3.88
2023-02-12T21:10:09.389Z,5.50
2023-02-12T21:12:37.877Z,6.87
2023-02-12T21:15:07.298Z,7.79
2023-02-12T21:17:35.794Z,8.14
2023-02-12T21:20:04.915Z,7.03
2023-02-12T21:22:33.253Z,5.74
2023-02-12T21:25:03.547Z,4.80
2023-02-12T21:27:31.610Z,4.14
2023-02-12T21:30:03.346Z,3.68
2023-02-12T21:32:32.983Z,4.49
2023-02-12T21:35:03.457Z,6.16
2023-02-12T21:37:31.949Z,7.40
2023-02-12T21:40:01.617Z,8.28
2023-02-12T21:42:42.287Z,7.73
2023-02-12T21:45:10.879Z,6.24
2023-02-12T21:47:38.799Z,5.18
2023-02-12T21:50:09.249Z,4.47
2023-02-12T21:52:36.698Z,3.97
2023-02-12T21:55:04.124Z,3.96
2023-02-12T21:57:33.020Z,5.54
2023-02-12T22:00:00.711Z,6.76
2023-02-12T22:02:28.157Z,7.32
2023-02-12T22:04:55.670Z,7.82
2023-02-12T22:07:23.270Z,7.65
2023-02-12T22:09:50.530Z,6.45
2023-02-12T22:12:17.823Z,5.33
2023-02-12T22:14:45.214Z,4.55
2023-02-12T22:17:12.590Z,4.39
2023-02-12T22:19:40.385Z,5.91
2023-02-12T22:22:07.895Z,7.39
2023-02-12T22:24:35.342Z,8.32
2023-02-12T22:27:02.542Z,8.23
2023-02-12T22:29:30.117Z,6.88
2023-02-12T22:31:57.608Z,5.72
2023-02-12T22:34:25.021Z,5.01
2023-02-12T22:36:52.866Z,6.19
2023-02-12T22:39:20.104Z,7.63
2023-02-12T22:41:47.708Z,8.25
2023-02-12T22:44:16.792Z,7.05
2023-02-12T22:46:45.157Z,5.67
2023-02-12T22:49:12.609Z,4.71
2023-02-12T22:51:40.920Z,4.34
2023-02-12T22:54:11.524Z,5.80
2023-02-12T22:56:38.780Z,7.34
2023-02-12T22:59:06.064Z,8.29
2023-02-12T23:01:33.555Z,8.53
2023-02-12T23:04:00.823Z,7.27
2023-02-12T23:06:30.702Z,5.93
2023-02-12T23:09:01.409Z,5.01
2023-02-12T23:11:30.425Z,5.94
2023-02-12T23:13:59.248Z,7.54
2023-02-12T23:16:27.044Z,8.55
2023-02-12T23:18:56.927Z,7.97
2023-02-12T23:21:26.379Z,6.68
2023-02-12T23:23:54.352Z,5.67
2023-02-12T23:26:22.549Z,5.29
2023-02-12T23:28:49.728Z,6.78
2023-02-12T23:31:17.363Z,8.10
2023-02-12T23:33:44.933Z,8.46
2023-02-12T23:36:12.353Z,7.37
2023-02-12T23:38:39.492Z,6.10
2023-02-12T23:41:07.040Z,5.17
2023-02-12T23:43:34.420Z,4.87
2023-02-12T23:46:02.018Z,6.41
2023-02-12T23:48:29.788Z,7.95
2023-02-12T23:50:57.583Z,8.05
2023-02-12T23:53:25.096Z,6.97
2023-02-12T23:55:52.605Z,5.75
2023-02-12T23:58:20.361Z,4.85
